Terminal Aerodrome Forecast
Issued by NWS

Home | Current Version | Previous Version | Text Only | Print | Product List | Glossary On
Versions: 1 2 3 4 5 6 7 8 9 10 11 12 13
000
FTUS46 KMFR 170539
TAFLMT
TAF
KLMT 170539Z 1706/1806 VRB03KT P6SM SCT120
     FM171800 16007KT P6SM FEW060 BKN100
     FM180300 18012G20KT P6SM VCSH SCT040 OVC060=

USA.gov is the U.S. government's official web portal to all federal, state and local government web resources and services.